sensor_id;sensor_type;location;lat;lon;timestamp;P1;durP1;ratioP1;P2;durP2;ratioP2
55067;SDS011;40965;52.368;9.712;2022-09-11T00:01:47;8.38;;;7.57;;
55067;SDS011;40965;52.368;9.712;2022-09-11T00:06:48;8.25;;;7.43;;
55067;SDS011;40965;52.368;9.712;2022-09-11T00:09:15;8.82;;;7.68;;
55067;SDS011;40965;52.368;9.712;2022-09-11T00:11:45;9.95;;;7.22;;
55067;SDS011;40965;52.368;9.712;2022-09-11T00:14:12;8.90;;;8.10;;
55067;SDS011;40965;52.368;9.712;2022-09-11T00:16:42;8.65;;;7.55;;
55067;SDS011;40965;52.368;9.712;2022-09-11T00:19:14;8.75;;;7.95;;
55067;SDS011;40965;52.368;9.712;2022-09-11T00:21:43;9.32;;;8.52;;
55067;SDS011;40965;52.368;9.712;2022-09-11T00:24:10;9.95;;;8.95;;
55067;SDS011;40965;52.368;9.712;2022-09-11T00:26:38;11.00;;;9.35;;
55067;SDS011;40965;52.368;9.712;2022-09-11T00:29:11;17.45;;;9.45;;
55067;SDS011;40965;52.368;9.712;2022-09-11T00:31:37;9.75;;;8.85;;
55067;SDS011;40965;52.368;9.712;2022-09-11T00:34:05;10.82;;;9.60;;
55067;SDS011;40965;52.368;9.712;2022-09-11T00:36:38;12.07;;;9.85;;
55067;SDS011;40965;52.368;9.712;2022-09-11T00:39:07;11.20;;;9.25;;
55067;SDS011;40965;52.368;9.712;2022-09-11T00:41:37;12.23;;;9.20;;
55067;SDS011;40965;52.368;9.712;2022-09-11T00:47:15;11.57;;;9.93;;
55067;SDS011;40965;52.368;9.712;2022-09-11T00:49:39;10.68;;;8.50;;
55067;SDS011;40965;52.368;9.712;2022-09-11T00:52:20;10.60;;;9.15;;
55067;SDS011;40965;52.368;9.712;2022-09-11T00:54:53;9.20;;;8.30;;
55067;SDS011;40965;52.368;9.712;2022-09-11T00:57:38;14.07;;;11.30;;
55067;SDS011;40965;52.368;9.712;2022-09-11T01:00:13;12.93;;;10.68;;
55067;SDS011;40965;52.368;9.712;2022-09-11T01:02:41;12.65;;;9.52;;
55067;SDS011;40965;52.368;9.712;2022-09-11T01:05:15;10.00;;;9.00;;
55067;SDS011;40965;52.368;9.712;2022-09-11T01:07:46;11.98;;;10.10;;
55067;SDS011;40965;52.368;9.712;2022-09-11T01:10:19;13.98;;;10.40;;
55067;SDS011;40965;52.368;9.712;2022-09-11T01:13:37;12.48;;;10.73;;
55067;SDS011;40965;52.368;9.712;2022-09-11T01:18:56;14.02;;;10.05;;
55067;SDS011;40965;52.368;9.712;2022-09-11T01:21:48;11.40;;;10.25;;
55067;SDS011;40965;52.368;9.712;2022-09-11T01:24:43;11.65;;;10.45;;
55067;SDS011;40965;52.368;9.712;2022-09-11T01:27:27;13.05;;;10.60;;
55067;SDS011;40965;52.368;9.712;2022-09-11T01:30:20;13.30;;;11.80;;
55067;SDS011;40965;52.368;9.712;2022-09-11T01:33:01;18.20;;;13.55;;
55067;SDS011;40965;52.368;9.712;2022-09-11T01:35:46;19.75;;;13.60;;
55067;SDS011;40965;52.368;9.712;2022-09-11T01:38:41;20.50;;;14.15;;
55067;SDS011;40965;52.368;9.712;2022-09-11T01:44:15;22.00;;;15.90;;
55067;SDS011;40965;52.368;9.712;2022-09-11T01:46:49;23.17;;;17.02;;
55067;SDS011;40965;52.368;9.712;2022-09-11T01:49:19;25.65;;;17.13;;
55067;SDS011;40965;52.368;9.712;2022-09-11T01:51:55;24.63;;;18.13;;
55067;SDS011;40965;52.368;9.712;2022-09-11T01:54:28;28.43;;;17.97;;
55067;SDS011;40965;52.368;9.712;2022-09-11T01:57:02;35.85;;;20.80;;
55067;SDS011;40965;52.368;9.712;2022-09-11T01:59:43;34.53;;;21.35;;
55067;SDS011;40965;52.368;9.712;2022-09-11T02:02:17;36.97;;;21.85;;
55067;SDS011;40965;52.368;9.712;2022-09-11T02:04:54;43.10;;;23.65;;
55067;SDS011;40965;52.368;9.712;2022-09-11T02:07:38;43.05;;;24.98;;
55067;SDS011;40965;52.368;9.712;2022-09-11T02:10:23;41.97;;;23.55;;
55067;SDS011;40965;52.368;9.712;2022-09-11T02:12:57;37.30;;;21.50;;
55067;SDS011;40965;52.368;9.712;2022-09-11T02:15:46;45.73;;;24.07;;
55067;SDS011;40965;52.368;9.712;2022-09-11T02:18:24;51.75;;;25.75;;
55067;SDS011;40965;52.368;9.712;2022-09-11T02:21:04;36.08;;;22.70;;
55067;SDS011;40965;52.368;9.712;2022-09-11T02:23:32;42.42;;;25.17;;
55067;SDS011;40965;52.368;9.712;2022-09-11T02:26:00;41.17;;;24.02;;
55067;SDS011;40965;52.368;9.712;2022-09-11T02:28:29;44.20;;;22.60;;
55067;SDS011;40965;52.368;9.712;2022-09-11T02:30:57;38.05;;;22.23;;
55067;SDS011;40965;52.368;9.712;2022-09-11T02:33:35;38.33;;;22.75;;
55067;SDS011;40965;52.368;9.712;2022-09-11T02:45:48;48.97;;;25.25;;
55067;SDS011;40965;52.368;9.712;2022-09-11T02:48:44;39.05;;;22.65;;
55067;SDS011;40965;52.368;9.712;2022-09-11T02:51:38;32.50;;;19.85;;
55067;SDS011;40965;52.368;9.712;2022-09-11T02:57:06;39.78;;;22.77;;
55067;SDS011;40965;52.368;9.712;2022-09-11T02:59:52;37.90;;;23.50;;
55067;SDS011;40965;52.368;9.712;2022-09-11T03:02:25;28.13;;;18.80;;
55067;SDS011;40965;52.368;9.712;2022-09-11T03:04:55;34.28;;;21.98;;
55067;SDS011;40965;52.368;9.712;2022-09-11T03:07:23;40.83;;;23.15;;
55067;SDS011;40965;52.368;9.712;2022-09-11T03:09:51;32.30;;;20.48;;
55067;SDS011;40965;52.368;9.712;2022-09-11T03:12:18;28.48;;;18.38;;
55067;SDS011;40965;52.368;9.712;2022-09-11T03:14:46;37.20;;;22.83;;
55067;SDS011;40965;52.368;9.712;2022-09-11T03:17:14;32.72;;;21.00;;
55067;SDS011;40965;52.368;9.712;2022-09-11T03:19:46;34.55;;;22.50;;
55067;SDS011;40965;52.368;9.712;2022-09-11T03:22:13;33.28;;;22.10;;
55067;SDS011;40965;52.368;9.712;2022-09-11T03:24:40;35.17;;;22.92;;
55067;SDS011;40965;52.368;9.712;2022-09-11T03:27:10;36.95;;;22.80;;
55067;SDS011;40965;52.368;9.712;2022-09-11T03:29:38;34.40;;;23.10;;
55067;SDS011;40965;52.368;9.712;2022-09-11T03:32:06;34.65;;;21.00;;
55067;SDS011;40965;52.368;9.712;2022-09-11T03:34:34;33.42;;;22.00;;
55067;SDS011;40965;52.368;9.712;2022-09-11T03:37:02;33.45;;;22.50;;
55067;SDS011;40965;52.368;9.712;2022-09-11T03:39:31;28.38;;;19.75;;
55067;SDS011;40965;52.368;9.712;2022-09-11T03:42:04;36.95;;;23.27;;
55067;SDS011;40965;52.368;9.712;2022-09-11T03:44:36;29.38;;;20.17;;
55067;SDS011;40965;52.368;9.712;2022-09-11T03:47:09;28.83;;;19.95;;
55067;SDS011;40965;52.368;9.712;2022-09-11T03:49:37;31.58;;;21.17;;
55067;SDS011;40965;52.368;9.712;2022-09-11T03:52:04;25.20;;;18.27;;
55067;SDS011;40965;52.368;9.712;2022-09-11T03:54:34;29.98;;;20.10;;
55067;SDS011;40965;52.368;9.712;2022-09-11T03:57:01;25.55;;;19.45;;
55067;SDS011;40965;52.368;9.712;2022-09-11T03:59:31;27.10;;;18.00;;
55067;SDS011;40965;52.368;9.712;2022-09-11T04:01:58;30.00;;;20.40;;
55067;SDS011;40965;52.368;9.712;2022-09-11T04:04:26;28.30;;;19.75;;
55067;SDS011;40965;52.368;9.712;2022-09-11T04:06:55;31.33;;;20.33;;
55067;SDS011;40965;52.368;9.712;2022-09-11T04:09:22;25.27;;;16.98;;
55067;SDS011;40965;52.368;9.712;2022-09-11T04:11:56;28.80;;;18.50;;
55067;SDS011;40965;52.368;9.712;2022-09-11T04:14:23;31.65;;;19.38;;
55067;SDS011;40965;52.368;9.712;2022-09-11T04:16:51;29.25;;;17.48;;
55067;SDS011;40965;52.368;9.712;2022-09-11T04:19:18;27.48;;;16.55;;
55067;SDS011;40965;52.368;9.712;2022-09-11T04:21:47;23.88;;;14.55;;
55067;SDS011;40965;52.368;9.712;2022-09-11T04:24:15;25.52;;;16.15;;
55067;SDS011;40965;52.368;9.712;2022-09-11T04:26:43;26.00;;;16.17;;
55067;SDS011;40965;52.368;9.712;2022-09-11T04:29:10;27.63;;;16.48;;
55067;SDS011;40965;52.368;9.712;2022-09-11T04:31:37;23.13;;;15.82;;
55067;SDS011;40965;52.368;9.712;2022-09-11T04:34:05;29.98;;;18.17;;
55067;SDS011;40965;52.368;9.712;2022-09-11T04:36:33;27.17;;;17.23;;
55067;SDS011;40965;52.368;9.712;2022-09-11T04:38:59;25.90;;;16.35;;
55067;SDS011;40965;52.368;9.712;2022-09-11T04:41:26;27.50;;;18.10;;
55067;SDS011;40965;52.368;9.712;2022-09-11T04:43:56;27.15;;;17.10;;
55067;SDS011;40965;52.368;9.712;2022-09-11T04:46:25;20.73;;;13.57;;
55067;SDS011;40965;52.368;9.712;2022-09-11T04:48:53;28.00;;;17.25;;
55067;SDS011;40965;52.368;9.712;2022-09-11T04:51:35;25.75;;;17.75;;
55067;SDS011;40965;52.368;9.712;2022-09-11T04:54:05;24.65;;;16.48;;
55067;SDS011;40965;52.368;9.712;2022-09-11T04:56:33;24.60;;;15.82;;
55067;SDS011;40965;52.368;9.712;2022-09-11T04:59:07;27.17;;;17.40;;
55067;SDS011;40965;52.368;9.712;2022-09-11T05:01:40;28.30;;;15.55;;
55067;SDS011;40965;52.368;9.712;2022-09-11T05:04:09;30.70;;;18.85;;
55067;SDS011;40965;52.368;9.712;2022-09-11T05:06:40;30.23;;;17.60;;
55067;SDS011;40965;52.368;9.712;2022-09-11T05:09:09;30.48;;;19.35;;
55067;SDS011;40965;52.368;9.712;2022-09-11T05:11:36;36.85;;;20.17;;
55067;SDS011;40965;52.368;9.712;2022-09-11T05:14:03;31.05;;;17.80;;
55067;SDS011;40965;52.368;9.712;2022-09-11T05:16:31;33.65;;;18.45;;
55067;SDS011;40965;52.368;9.712;2022-09-11T05:18:58;34.10;;;19.98;;
55067;SDS011;40965;52.368;9.712;2022-09-11T05:21:26;33.60;;;18.52;;
55067;SDS011;40965;52.368;9.712;2022-09-11T05:23:54;37.15;;;22.08;;
55067;SDS011;40965;52.368;9.712;2022-09-11T05:26:33;35.95;;;20.30;;
55067;SDS011;40965;52.368;9.712;2022-09-11T05:29:03;41.20;;;21.98;;
55067;SDS011;40965;52.368;9.712;2022-09-11T05:31:35;42.30;;;21.90;;
55067;SDS011;40965;52.368;9.712;2022-09-11T05:34:04;42.72;;;22.33;;
55067;SDS011;40965;52.368;9.712;2022-09-11T05:36:31;41.33;;;21.20;;
55067;SDS011;40965;52.368;9.712;2022-09-11T05:38:59;45.17;;;21.45;;
55067;SDS011;40965;52.368;9.712;2022-09-11T05:41:27;42.53;;;22.17;;
55067;SDS011;40965;52.368;9.712;2022-09-11T05:43:53;37.03;;;20.92;;
55067;SDS011;40965;52.368;9.712;2022-09-11T05:46:21;41.53;;;22.20;;
55067;SDS011;40965;52.368;9.712;2022-09-11T05:49:37;43.13;;;21.40;;
55067;SDS011;40965;52.368;9.712;2022-09-11T05:52:03;47.45;;;23.45;;
55067;SDS011;40965;52.368;9.712;2022-09-11T05:54:31;41.92;;;20.88;;
55067;SDS011;40965;52.368;9.712;2022-09-11T05:56:57;38.00;;;18.67;;
55067;SDS011;40965;52.368;9.712;2022-09-11T05:59:24;46.33;;;21.63;;
55067;SDS011;40965;52.368;9.712;2022-09-11T06:01:51;36.72;;;19.42;;
55067;SDS011;40965;52.368;9.712;2022-09-11T06:04:18;40.63;;;22.67;;
55067;SDS011;40965;52.368;9.712;2022-09-11T06:06:45;39.33;;;20.67;;
55067;SDS011;40965;52.368;9.712;2022-09-11T06:09:12;35.25;;;19.00;;
55067;SDS011;40965;52.368;9.712;2022-09-11T06:11:40;30.38;;;18.17;;
55067;SDS011;40965;52.368;9.712;2022-09-11T06:14:07;31.02;;;17.92;;
55067;SDS011;40965;52.368;9.712;2022-09-11T06:16:34;29.77;;;17.85;;
55067;SDS011;40965;52.368;9.712;2022-09-11T06:19:01;31.38;;;18.08;;
55067;SDS011;40965;52.368;9.712;2022-09-11T06:21:31;35.53;;;20.05;;
55067;SDS011;40965;52.368;9.712;2022-09-11T06:23:58;31.42;;;19.88;;
55067;SDS011;40965;52.368;9.712;2022-09-11T06:26:25;32.65;;;20.17;;
55067;SDS011;40965;52.368;9.712;2022-09-11T06:29:06;40.55;;;22.15;;
55067;SDS011;40965;52.368;9.712;2022-09-11T06:31:38;36.78;;;21.85;;
55067;SDS011;40965;52.368;9.712;2022-09-11T06:34:05;35.20;;;20.77;;
55067;SDS011;40965;52.368;9.712;2022-09-11T06:36:39;29.63;;;18.67;;
55067;SDS011;40965;52.368;9.712;2022-09-11T06:39:10;34.85;;;18.92;;
55067;SDS011;40965;52.368;9.712;2022-09-11T06:41:38;27.02;;;17.42;;
55067;SDS011;40965;52.368;9.712;2022-09-11T06:44:07;37.25;;;22.98;;
55067;SDS011;40965;52.368;9.712;2022-09-11T06:46:35;36.60;;;21.25;;
55067;SDS011;40965;52.368;9.712;2022-09-11T06:49:02;31.83;;;20.63;;
55067;SDS011;40965;52.368;9.712;2022-09-11T06:51:30;33.13;;;20.92;;
55067;SDS011;40965;52.368;9.712;2022-09-11T06:53:59;28.10;;;17.90;;
55067;SDS011;40965;52.368;9.712;2022-09-11T06:56:27;27.02;;;19.23;;
55067;SDS011;40965;52.368;9.712;2022-09-11T06:58:56;26.58;;;18.63;;
55067;SDS011;40965;52.368;9.712;2022-09-11T07:01:25;26.85;;;18.63;;
55067;SDS011;40965;52.368;9.712;2022-09-11T07:03:52;35.80;;;21.23;;
55067;SDS011;40965;52.368;9.712;2022-09-11T07:06:21;33.03;;;20.45;;
55067;SDS011;40965;52.368;9.712;2022-09-11T07:09:05;31.50;;;21.08;;
55067;SDS011;40965;52.368;9.712;2022-09-11T07:11:34;33.40;;;20.60;;
55067;SDS011;40965;52.368;9.712;2022-09-11T07:14:11;29.70;;;19.02;;
55067;SDS011;40965;52.368;9.712;2022-09-11T07:16:52;28.40;;;19.55;;
55067;SDS011;40965;52.368;9.712;2022-09-11T07:19:22;29.98;;;20.50;;
55067;SDS011;40965;52.368;9.712;2022-09-11T07:21:50;31.08;;;21.08;;
55067;SDS011;40965;52.368;9.712;2022-09-11T07:24:16;31.67;;;21.10;;
55067;SDS011;40965;52.368;9.712;2022-09-11T07:26:43;32.33;;;21.10;;
55067;SDS011;40965;52.368;9.712;2022-09-11T07:29:11;27.02;;;19.17;;
55067;SDS011;40965;52.368;9.712;2022-09-11T07:31:39;34.88;;;21.00;;
55067;SDS011;40965;52.368;9.712;2022-09-11T07:34:07;30.48;;;21.98;;
55067;SDS011;40965;52.368;9.712;2022-09-11T07:36:34;29.92;;;20.10;;
55067;SDS011;40965;52.368;9.712;2022-09-11T07:39:04;28.17;;;20.58;;
55067;SDS011;40965;52.368;9.712;2022-09-11T07:41:31;26.77;;;17.30;;
55067;SDS011;40965;52.368;9.712;2022-09-11T07:43:58;28.88;;;19.55;;
55067;SDS011;40965;52.368;9.712;2022-09-11T07:46:25;32.67;;;21.58;;
55067;SDS011;40965;52.368;9.712;2022-09-11T07:48:53;29.05;;;19.38;;
55067;SDS011;40965;52.368;9.712;2022-09-11T07:51:22;33.80;;;22.40;;
55067;SDS011;40965;52.368;9.712;2022-09-11T07:53:51;31.80;;;21.15;;
55067;SDS011;40965;52.368;9.712;2022-09-11T07:56:22;28.73;;;21.15;;
55067;SDS011;40965;52.368;9.712;2022-09-11T07:58:54;34.78;;;21.42;;
55067;SDS011;40965;52.368;9.712;2022-09-11T08:01:24;29.20;;;20.48;;
55067;SDS011;40965;52.368;9.712;2022-09-11T08:03:58;27.27;;;19.58;;
55067;SDS011;40965;52.368;9.712;2022-09-11T08:06:29;30.83;;;21.45;;
55067;SDS011;40965;52.368;9.712;2022-09-11T08:09:03;33.25;;;21.88;;
55067;SDS011;40965;52.368;9.712;2022-09-11T08:11:38;25.67;;;19.77;;
55067;SDS011;40965;52.368;9.712;2022-09-11T08:14:15;32.85;;;21.27;;
55067;SDS011;40965;52.368;9.712;2022-09-11T08:16:46;24.30;;;18.13;;
55067;SDS011;40965;52.368;9.712;2022-09-11T08:19:17;29.83;;;20.15;;
55067;SDS011;40965;52.368;9.712;2022-09-11T08:21:49;26.83;;;18.02;;
55067;SDS011;40965;52.368;9.712;2022-09-11T08:24:33;28.45;;;18.63;;
55067;SDS011;40965;52.368;9.712;2022-09-11T08:27:03;27.35;;;18.00;;
55067;SDS011;40965;52.368;9.712;2022-09-11T08:29:32;24.30;;;17.23;;
55067;SDS011;40965;52.368;9.712;2022-09-11T08:31:59;26.95;;;18.33;;
55067;SDS011;40965;52.368;9.712;2022-09-11T08:34:26;20.85;;;15.60;;
55067;SDS011;40965;52.368;9.712;2022-09-11T08:36:53;25.83;;;18.00;;
55067;SDS011;40965;52.368;9.712;2022-09-11T08:39:20;24.45;;;16.90;;
55067;SDS011;40965;52.368;9.712;2022-09-11T08:41:48;20.90;;;15.52;;
55067;SDS011;40965;52.368;9.712;2022-09-11T08:44:26;23.20;;;17.13;;
55067;SDS011;40965;52.368;9.712;2022-09-11T08:47:04;21.48;;;15.85;;
55067;SDS011;40965;52.368;9.712;2022-09-11T08:49:42;19.65;;;15.20;;
55067;SDS011;40965;52.368;9.712;2022-09-11T08:52:22;22.92;;;16.00;;
55067;SDS011;40965;52.368;9.712;2022-09-11T08:54:52;19.02;;;14.10;;
55067;SDS011;40965;52.368;9.712;2022-09-11T09:00:23;15.23;;;12.05;;
55067;SDS011;40965;52.368;9.712;2022-09-11T09:05:56;19.70;;;13.48;;
55067;SDS011;40965;52.368;9.712;2022-09-11T09:09:11;21.73;;;15.35;;
55067;SDS011;40965;52.368;9.712;2022-09-11T09:12:15;20.90;;;14.50;;
55067;SDS011;40965;52.368;9.712;2022-09-11T09:15:17;16.77;;;13.70;;
55067;SDS011;40965;52.368;9.712;2022-09-11T09:18:41;16.17;;;12.15;;
55067;SDS011;40965;52.368;9.712;2022-09-11T09:21:15;17.38;;;13.20;;
55067;SDS011;40965;52.368;9.712;2022-09-11T09:23:53;19.40;;;13.38;;
55067;SDS011;40965;52.368;9.712;2022-09-11T09:26:22;15.98;;;12.73;;
55067;SDS011;40965;52.368;9.712;2022-09-11T09:29:02;15.30;;;11.23;;
55067;SDS011;40965;52.368;9.712;2022-09-11T09:31:34;17.42;;;12.48;;
55067;SDS011;40965;52.368;9.712;2022-09-11T09:34:21;14.48;;;10.65;;
55067;SDS011;40965;52.368;9.712;2022-09-11T09:36:56;13.55;;;11.07;;
55067;SDS011;40965;52.368;9.712;2022-09-11T09:39:33;12.52;;;10.65;;
55067;SDS011;40965;52.368;9.712;2022-09-11T09:42:10;10.98;;;9.55;;
55067;SDS011;40965;52.368;9.712;2022-09-11T09:45:13;13.87;;;9.70;;
55067;SDS011;40965;52.368;9.712;2022-09-11T09:47:51;13.57;;;10.40;;
55067;SDS011;40965;52.368;9.712;2022-09-11T09:50:19;12.55;;;9.95;;
55067;SDS011;40965;52.368;9.712;2022-09-11T09:53:12;11.55;;;9.63;;
55067;SDS011;40965;52.368;9.712;2022-09-11T09:55:58;12.18;;;9.95;;
55067;SDS011;40965;52.368;9.712;2022-09-11T09:58:32;15.45;;;10.57;;
55067;SDS011;40965;52.368;9.712;2022-09-11T10:01:40;13.85;;;9.63;;
55067;SDS011;40965;52.368;9.712;2022-09-11T10:04:09;14.88;;;9.93;;
55067;SDS011;40965;52.368;9.712;2022-09-11T10:07:12;21.15;;;11.65;;
55067;SDS011;40965;52.368;9.712;2022-09-11T10:09:50;11.75;;;9.60;;
55067;SDS011;40965;52.368;9.712;2022-09-11T10:12:26;13.77;;;11.02;;
55067;SDS011;40965;52.368;9.712;2022-09-11T10:15:16;11.85;;;9.57;;
55067;SDS011;40965;52.368;9.712;2022-09-11T10:17:45;10.88;;;8.85;;
55067;SDS011;40965;52.368;9.712;2022-09-11T10:22:42;12.93;;;9.75;;
55067;SDS011;40965;52.368;9.712;2022-09-11T10:25:24;12.85;;;10.52;;
55067;SDS011;40965;52.368;9.712;2022-09-11T10:28:01;13.43;;;10.73;;
55067;SDS011;40965;52.368;9.712;2022-09-11T10:30:34;17.17;;;11.85;;
55067;SDS011;40965;52.368;9.712;2022-09-11T10:33:15;15.60;;;12.18;;
55067;SDS011;40965;52.368;9.712;2022-09-11T10:35:50;18.40;;;11.15;;
55067;SDS011;40965;52.368;9.712;2022-09-11T10:38:22;16.35;;;11.40;;
55067;SDS011;40965;52.368;9.712;2022-09-11T10:41:00;12.73;;;9.25;;
55067;SDS011;40965;52.368;9.712;2022-09-11T10:43:55;14.15;;;10.82;;
55067;SDS011;40965;52.368;9.712;2022-09-11T10:51:39;13.20;;;10.70;;
55067;SDS011;40965;52.368;9.712;2022-09-11T10:54:13;13.15;;;10.07;;
55067;SDS011;40965;52.368;9.712;2022-09-11T10:57:17;15.85;;;10.25;;
55067;SDS011;40965;52.368;9.712;2022-09-11T11:09:00;13.95;;;9.95;;
55067;SDS011;40965;52.368;9.712;2022-09-11T11:11:58;18.77;;;10.85;;
55067;SDS011;40965;52.368;9.712;2022-09-11T11:18:03;8.70;;;7.65;;
55067;SDS011;40965;52.368;9.712;2022-09-11T11:23:48;10.98;;;7.93;;
55067;SDS011;40965;52.368;9.712;2022-09-11T11:29:39;9.77;;;7.30;;
55067;SDS011;40965;52.368;9.712;2022-09-11T11:32:15;10.43;;;7.28;;
55067;SDS011;40965;52.368;9.712;2022-09-11T11:35:19;9.30;;;8.38;;
55067;SDS011;40965;52.368;9.712;2022-09-11T11:37:52;9.30;;;7.85;;
55067;SDS011;40965;52.368;9.712;2022-09-11T11:40:30;6.80;;;6.05;;
55067;SDS011;40965;52.368;9.712;2022-09-11T11:43:08;10.50;;;6.80;;
55067;SDS011;40965;52.368;9.712;2022-09-11T11:45:50;10.63;;;7.93;;
55067;SDS011;40965;52.368;9.712;2022-09-11T11:48:27;8.52;;;6.65;;
55067;SDS011;40965;52.368;9.712;2022-09-11T11:51:07;8.73;;;6.38;;
55067;SDS011;40965;52.368;9.712;2022-09-11T11:53:41;8.82;;;6.43;;
55067;SDS011;40965;52.368;9.712;2022-09-11T11:59:12;5.85;;;5.35;;
55067;SDS011;40965;52.368;9.712;2022-09-11T12:01:53;8.20;;;5.22;;
55067;SDS011;40965;52.368;9.712;2022-09-11T12:07:35;4.90;;;3.90;;
55067;SDS011;40965;52.368;9.712;2022-09-11T12:10:29;4.10;;;3.65;;
55067;SDS011;40965;52.368;9.712;2022-09-11T12:13:05;4.40;;;4.00;;
55067;SDS011;40965;52.368;9.712;2022-09-11T12:16:00;3.15;;;2.95;;
55067;SDS011;40965;52.368;9.712;2022-09-11T12:19:13;3.20;;;2.90;;
55067;SDS011;40965;52.368;9.712;2022-09-11T12:22:09;4.82;;;2.80;;
55067;SDS011;40965;52.368;9.712;2022-09-11T12:24:52;2.50;;;2.25;;
55067;SDS011;40965;52.368;9.712;2022-09-11T12:30:21;2.00;;;1.90;;
55067;SDS011;40965;52.368;9.712;2022-09-11T12:36:23;1.95;;;1.85;;
55067;SDS011;40965;52.368;9.712;2022-09-11T12:39:03;2.25;;;2.05;;
55067;SDS011;40965;52.368;9.712;2022-09-11T13:01:03;1.88;;;1.77;;
55067;SDS011;40965;52.368;9.712;2022-09-11T13:04:19;3.03;;;2.45;;
55067;SDS011;40965;52.368;9.712;2022-09-11T13:07:03;3.88;;;3.05;;
55067;SDS011;40965;52.368;9.712;2022-09-11T13:09:37;2.95;;;2.75;;
55067;SDS011;40965;52.368;9.712;2022-09-11T13:14:45;3.72;;;3.42;;
55067;SDS011;40965;52.368;9.712;2022-09-11T13:17:29;3.45;;;3.15;;
55067;SDS011;40965;52.368;9.712;2022-09-11T13:22:33;3.78;;;3.42;;
55067;SDS011;40965;52.368;9.712;2022-09-11T13:25:21;4.28;;;3.67;;
55067;SDS011;40965;52.368;9.712;2022-09-11T13:27:52;4.80;;;3.65;;
55067;SDS011;40965;52.368;9.712;2022-09-11T13:30:24;4.40;;;4.03;;
55067;SDS011;40965;52.368;9.712;2022-09-11T13:33:06;4.05;;;3.65;;
55067;SDS011;40965;52.368;9.712;2022-09-11T13:35:43;3.50;;;3.20;;
55067;SDS011;40965;52.368;9.712;2022-09-11T13:38:17;3.40;;;3.08;;
55067;SDS011;40965;52.368;9.712;2022-09-11T13:40:51;3.70;;;3.40;;
55067;SDS011;40965;52.368;9.712;2022-09-11T13:43:23;3.15;;;2.88;;
55067;SDS011;40965;52.368;9.712;2022-09-11T13:48:41;3.53;;;3.28;;
55067;SDS011;40965;52.368;9.712;2022-09-11T13:51:13;3.50;;;3.20;;
55067;SDS011;40965;52.368;9.712;2022-09-11T13:53:53;3.58;;;3.28;;
55067;SDS011;40965;52.368;9.712;2022-09-11T13:56:36;3.47;;;3.17;;
55067;SDS011;40965;52.368;9.712;2022-09-11T14:02:50;3.55;;;3.25;;
55067;SDS011;40965;52.368;9.712;2022-09-11T14:05:09;5.30;;;4.80;;
55067;SDS011;40965;52.368;9.712;2022-09-11T14:07:48;4.25;;;3.70;;
55067;SDS011;40965;52.368;9.712;2022-09-11T14:10:30;5.00;;;4.50;;
55067;SDS011;40965;52.368;9.712;2022-09-11T14:15:55;3.80;;;3.50;;
55067;SDS011;40965;52.368;9.712;2022-09-11T14:18:45;4.43;;;3.67;;
55067;SDS011;40965;52.368;9.712;2022-09-11T14:21:53;3.42;;;3.13;;
55067;SDS011;40965;52.368;9.712;2022-09-11T14:27:05;5.32;;;4.60;;
55067;SDS011;40965;52.368;9.712;2022-09-11T14:29:55;4.35;;;3.97;;
55067;SDS011;40965;52.368;9.712;2022-09-11T14:32:32;2.55;;;2.42;;
55067;SDS011;40965;52.368;9.712;2022-09-11T14:35:04;4.95;;;4.00;;
55067;SDS011;40965;52.368;9.712;2022-09-11T14:37:37;5.20;;;4.70;;
55067;SDS011;40965;52.368;9.712;2022-09-11T14:40:14;5.78;;;5.28;;
55067;SDS011;40965;52.368;9.712;2022-09-11T14:45:16;5.55;;;5.05;;
55067;SDS011;40965;52.368;9.712;2022-09-11T14:47:48;4.70;;;4.25;;
55067;SDS011;40965;52.368;9.712;2022-09-11T14:50:15;4.05;;;3.72;;
55067;SDS011;40965;52.368;9.712;2022-09-11T14:52:47;5.47;;;4.97;;
55067;SDS011;40965;52.368;9.712;2022-09-11T14:55:17;5.13;;;4.65;;
55067;SDS011;40965;52.368;9.712;2022-09-11T14:57:46;5.35;;;4.85;;
55067;SDS011;40965;52.368;9.712;2022-09-11T15:00:16;4.68;;;4.32;;
55067;SDS011;40965;52.368;9.712;2022-09-11T15:02:44;3.72;;;3.42;;
55067;SDS011;40965;52.368;9.712;2022-09-11T15:05:12;5.88;;;4.65;;
55067;SDS011;40965;52.368;9.712;2022-09-11T15:07:43;7.43;;;5.07;;
55067;SDS011;40965;52.368;9.712;2022-09-11T15:10:12;5.63;;;4.97;;
55067;SDS011;40965;52.368;9.712;2022-09-11T15:12:41;6.55;;;5.85;;
55067;SDS011;40965;52.368;9.712;2022-09-11T15:15:08;6.05;;;5.53;;
55067;SDS011;40965;52.368;9.712;2022-09-11T15:17:39;6.25;;;5.63;;
55067;SDS011;40965;52.368;9.712;2022-09-11T15:20:06;5.50;;;5.00;;
55067;SDS011;40965;52.368;9.712;2022-09-11T15:22:37;5.03;;;4.22;;
55067;SDS011;40965;52.368;9.712;2022-09-11T15:25:05;3.88;;;3.58;;
55067;SDS011;40965;52.368;9.712;2022-09-11T15:27:34;4.78;;;4.07;;
55067;SDS011;40965;52.368;9.712;2022-09-11T15:30:01;4.43;;;4.03;;
55067;SDS011;40965;52.368;9.712;2022-09-11T15:32:27;5.85;;;4.78;;
55067;SDS011;40965;52.368;9.712;2022-09-11T15:35:07;3.90;;;3.55;;
55067;SDS011;40965;52.368;9.712;2022-09-11T15:37:34;3.65;;;3.42;;
55067;SDS011;40965;52.368;9.712;2022-09-11T15:40:09;3.95;;;3.65;;
55067;SDS011;40965;52.368;9.712;2022-09-11T15:42:36;4.35;;;3.85;;
55067;SDS011;40965;52.368;9.712;2022-09-11T15:45:05;5.25;;;4.05;;
55067;SDS011;40965;52.368;9.712;2022-09-11T15:47:34;4.55;;;3.70;;
55067;SDS011;40965;52.368;9.712;2022-09-11T15:50:01;4.13;;;3.72;;
55067;SDS011;40965;52.368;9.712;2022-09-11T15:52:30;5.05;;;3.83;;
55067;SDS011;40965;52.368;9.712;2022-09-11T15:55:04;4.70;;;4.30;;
55067;SDS011;40965;52.368;9.712;2022-09-11T15:57:34;3.88;;;3.58;;
55067;SDS011;40965;52.368;9.712;2022-09-11T16:00:03;5.03;;;3.63;;
55067;SDS011;40965;52.368;9.712;2022-09-11T16:02:45;3.80;;;3.42;;
55067;SDS011;40965;52.368;9.712;2022-09-11T16:05:12;4.80;;;3.33;;
55067;SDS011;40965;52.368;9.712;2022-09-11T16:07:41;4.07;;;3.58;;
55067;SDS011;40965;52.368;9.712;2022-09-11T16:10:12;4.77;;;3.33;;
55067;SDS011;40965;52.368;9.712;2022-09-11T16:12:38;5.15;;;3.25;;
55067;SDS011;40965;52.368;9.712;2022-09-11T16:15:05;3.92;;;3.35;;
55067;SDS011;40965;52.368;9.712;2022-09-11T16:17:33;4.63;;;4.15;;
55067;SDS011;40965;52.368;9.712;2022-09-11T16:20:01;6.65;;;4.30;;
55067;SDS011;40965;52.368;9.712;2022-09-11T16:22:29;5.03;;;4.60;;
55067;SDS011;40965;52.368;9.712;2022-09-11T16:24:56;4.90;;;4.50;;
55067;SDS011;40965;52.368;9.712;2022-09-11T16:27:24;5.35;;;4.85;;
55067;SDS011;40965;52.368;9.712;2022-09-11T16:29:52;6.07;;;5.18;;
55067;SDS011;40965;52.368;9.712;2022-09-11T16:32:19;7.97;;;5.88;;
55067;SDS011;40965;52.368;9.712;2022-09-11T16:35:05;8.45;;;6.35;;
55067;SDS011;40965;52.368;9.712;2022-09-11T16:37:37;8.15;;;6.25;;
55067;SDS011;40965;52.368;9.712;2022-09-11T16:40:04;8.68;;;7.47;;
55067;SDS011;40965;52.368;9.712;2022-09-11T16:42:33;8.38;;;6.55;;
55067;SDS011;40965;52.368;9.712;2022-09-11T16:45:00;8.50;;;6.57;;
55067;SDS011;40965;52.368;9.712;2022-09-11T16:47:28;9.25;;;7.22;;
55067;SDS011;40965;52.368;9.712;2022-09-11T16:49:56;8.23;;;7.43;;
55067;SDS011;40965;52.368;9.712;2022-09-11T16:52:24;10.40;;;7.53;;
55067;SDS011;40965;52.368;9.712;2022-09-11T16:55:00;8.70;;;7.60;;
55067;SDS011;40965;52.368;9.712;2022-09-11T16:57:30;11.85;;;8.07;;
55067;SDS011;40965;52.368;9.712;2022-09-11T16:59:57;11.95;;;8.45;;